Time;durP1;ratioP1;P1;durP2;ratioP2;P2;SDS_P1;SDS_P2;PMS_P1;PMS_P2;Temp;Humidity;BMP_temperature;BMP_pressure;BME280_temperature;BME280_humidity;BME280_pressure;Samples;Min_cycle;Max_cycle;Signal;HPM_P1;HPM_P2
2023/06/04 00:01:01;;;;;;;2.00;1.10;;;;;;;11.05;62.04;101571.84;2102341;28;20089;-70
2023/06/04 00:02:03;;;;;;;1.85;0.82;;;;;;;11.06;61.89;101593.13;2103299;28;20040;-70
2023/06/04 00:03:06;;;;;;;2.03;0.88;;;;;;;11.08;62.16;101585.59;2109764;28;20179;-69
2023/06/04 00:04:08;;;;;;;2.38;1.00;;;;;;;11.10;61.97;101580.00;2104369;28;20024;-70
2023/06/04 00:05:12;;;;;;;3.15;1.35;;;;;;;11.11;62.16;101590.47;2086353;28;20841;-70
2023/06/04 00:06:16;;;;;;;2.50;1.00;;;;;;;11.11;62.27;101593.16;2096789;28;20115;-70
2023/06/04 00:07:18;;;;;;;1.83;0.90;;;;;;;11.11;61.99;101582.41;2095451;28;20843;-70
2023/06/04 00:08:20;;;;;;;2.75;1.13;;;;;;;11.11;62.41;101581.59;2111541;27;20036;-70
2023/06/04 00:09:21;;;;;;;1.58;0.95;;;;;;;11.15;62.39;101588.09;2112490;28;20094;-70
2023/06/04 00:10:29;;;;;;;1.50;1.23;;;;;;;11.14;62.27;101579.19;2094680;28;20040;-70
2023/06/04 00:11:33;;;;;;;2.10;1.00;;;;;;;11.19;62.63;101574.91;2096008;28;20045;-70
2023/06/04 00:12:35;;;;;;;1.98;0.85;;;;;;;11.18;62.45;101579.50;2104646;27;20767;-70
2023/06/04 00:13:37;;;;;;;1.75;1.10;;;;;;;11.26;62.37;101580.91;2111766;28;20016;-68
2023/06/04 00:14:40;;;;;;;4.32;1.20;;;;;;;11.32;62.64;101586.06;2103986;28;20080;-70
2023/06/04 00:15:44;;;;;;;2.90;1.00;;;;;;;11.39;62.48;101583.16;2094409;28;20046;-70
2023/06/04 00:16:46;;;;;;;1.65;1.00;;;;;;;11.43;62.20;101583.44;2093549;28;20740;-70
2023/06/04 00:17:48;;;;;;;1.63;1.00;;;;;;;11.43;61.73;101580.75;2096071;28;20029;-70
2023/06/04 00:18:50;;;;;;;2.05;0.90;;;;;;;11.46;62.03;101580.25;2103155;27;20041;-70
2023/06/04 00:19:52;;;;;;;1.55;0.77;;;;;;;11.49;61.57;101577.03;2112235;28;20876;-70
2023/06/04 00:20:54;;;;;;;1.15;0.65;;;;;;;11.50;62.09;101587.53;2103199;28;20048;-70
2023/06/04 00:21:55;;;;;;;1.25;0.80;;;;;;;11.52;62.04;101580.00;2111871;28;20803;-70
2023/06/04 00:22:57;;;;;;;1.95;0.90;;;;;;;11.56;61.53;101585.69;2103448;28;20037;-70
2023/06/04 00:24:00;;;;;;;1.00;0.70;;;;;;;11.60;61.54;101582.22;2111582;27;20036;-70
2023/06/04 00:25:04;;;;;;;1.25;0.80;;;;;;;11.66;61.48;101580.34;2115289;28;20032;-70
2023/06/04 00:26:07;;;;;;;1.95;0.82;;;;;;;11.69;61.11;101584.41;2110527;27;20079;-70
2023/06/04 00:27:08;;;;;;;0.73;0.65;;;;;;;11.70;60.83;101573.41;2103642;28;20818;-69
2023/06/04 00:28:13;;;;;;;1.85;1.00;;;;;;;11.72;60.03;101573.94;2104780;27;20756;-70
2023/06/04 00:29:17;;;;;;;1.17;0.70;;;;;;;11.75;59.43;101573.41;2103532;28;20099;-70
2023/06/04 00:30:19;;;;;;;3.30;0.80;;;;;;;11.79;58.54;101588.00;2100138;28;20048;-70
2023/06/04 00:31:21;;;;;;;1.85;1.10;;;;;;;11.81;57.90;101577.75;2112512;28;20162;-70
2023/06/04 00:32:22;;;;;;;2.58;0.98;;;;;;;11.82;57.29;101573.16;2094283;28;20151;-70
2023/06/04 00:33:24;;;;;;;1.75;0.95;;;;;;;11.80;57.29;101576.13;2121615;27;20027;-70
2023/06/04 00:34:26;;;;;;;1.80;1.02;;;;;;;11.78;56.92;101582.84;2107621;28;20021;-70
2023/06/04 00:35:29;;;;;;;2.00;1.05;;;;;;;11.78;56.99;101580.16;2104374;28;20083;-70
2023/06/04 00:36:31;;;;;;;1.67;1.00;;;;;;;11.79;54.08;101577.22;2110775;28;21025;-70
2023/06/04 00:37:32;;;;;;;1.05;0.90;;;;;;;11.81;53.66;101564.28;2112489;28;20851;-70
2023/06/04 00:38:34;;;;;;;1.40;0.90;;;;;;;11.81;53.62;101561.59;2111632;28;20025;-70
2023/06/04 00:39:35;;;;;;;2.47;1.00;;;;;;;11.86;52.40;101565.44;2111590;28;20025;-70
2023/06/04 00:40:43;;;;;;;1.63;1.00;;;;;;;11.90;52.12;101563.81;2098542;28;21331;-69
2023/06/04 00:41:45;;;;;;;1.27;0.88;;;;;;;11.92;51.56;101564.38;2095513;28;20017;-69
2023/06/04 00:42:49;;;;;;;1.33;0.90;;;;;;;11.91;50.95;101562.75;2099646;28;20041;-70
2023/06/04 00:43:57;;;;;;;1.70;1.00;;;;;;;11.89;50.43;101570.28;2096135;28;20032;-70
2023/06/04 00:44:59;;;;;;;2.55;1.20;;;;;;;11.92;50.66;101565.19;2096204;28;20094;-70
2023/06/04 00:46:05;;;;;;;3.85;1.38;;;;;;;11.94;50.40;101564.91;2104013;28;20119;-70
2023/06/04 00:47:07;;;;;;;3.35;0.93;;;;;;;11.92;50.10;101564.38;2102403;28;20867;-70
2023/06/04 00:48:10;;;;;;;4.05;1.27;;;;;;;11.90;49.81;101564.63;2104060;28;20044;-70
2023/06/04 00:49:12;;;;;;;1.85;1.15;;;;;;;11.91;50.36;101562.75;2102479;28;20029;-70
2023/06/04 00:50:14;;;;;;;1.30;0.90;;;;;;;11.91;50.33;101563.53;2112296;28;20022;-70
2023/06/04 00:51:17;;;;;;;1.70;1.25;;;;;;;11.90;50.20;101564.63;2115708;28;20028;-70
2023/06/04 00:52:22;;;;;;;3.08;1.20;;;;;;;11.88;50.39;101560.56;2115049;28;20924;-70
2023/06/04 00:53:25;;;;;;;2.83;1.42;;;;;;;11.87;50.61;101562.44;2099185;28;20021;-70
2023/06/04 00:54:30;;;;;;;3.30;1.42;;;;;;;11.88;50.00;101560.56;2099391;28;20179;-70
2023/06/04 00:55:32;;;;;;;2.78;1.10;;;;;;;11.88;49.91;101563.25;2107575;28;20890;-70
2023/06/04 00:56:34;;;;;;;2.58;1.20;;;;;;;11.86;49.86;101557.34;2116213;27;20862;-70
2023/06/04 00:57:37;;;;;;;1.33;1.05;;;;;;;11.86;49.67;101568.94;2102890;28;20078;-70
2023/06/04 00:58:42;;;;;;;3.40;1.23;;;;;;;11.87;50.05;101559.75;2104443;27;20033;-70
2023/06/04 00:59:52;;;;;;;2.33;1.20;;;;;;;11.88;49.73;101560.56;2110056;28;20046;-70
2023/06/04 01:00:59;;;;;;;1.33;0.90;;;;;;;11.87;49.79;101558.97;2104188;28;20037;-70
2023/06/04 01:02:03;;;;;;;3.03;1.10;;;;;;;11.87;49.39;101561.66;2094860;28;20037;-70
2023/06/04 01:03:11;;;;;;;2.88;1.48;;;;;;;11.85;49.78;101566.47;2095864;28;20041;-70
2023/06/04 01:04:21;;;;;;;2.13;1.30;;;;;;;11.87;49.34;101558.97;2096872;27;20764;-70
2023/06/04 01:05:34;;;;;;;2.38;1.40;;;;;;;11.89;48.88;101568.41;2107686;28;20056;-70
2023/06/04 01:06:40;;;;;;;3.22;1.10;;;;;;;11.90;48.48;101563.81;2096081;28;20033;-70
2023/06/04 01:07:45;;;;;;;2.67;1.30;;;;;;;11.89;48.38;101563.00;2096040;28;20081;-69
2023/06/04 01:08:54;;;;;;;1.80;1.38;;;;;;;11.89;48.19;101556.81;2100200;27;20069;-69
2023/06/04 01:09:58;;;;;;;2.63;1.20;;;;;;;11.88;48.34;101560.56;2111308;28;20036;-69
2023/06/04 01:11:00;;;;;;;2.40;1.17;;;;;;;11.89;48.07;101562.22;2095405;28;20026;-70
2023/06/04 01:12:05;;;;;;;1.60;0.93;;;;;;;11.90;48.24;101558.44;2090815;28;20752;-70
2023/06/04 01:13:07;;;;;;;4.18;1.30;;;;;;;11.89;48.16;101559.50;2099531;28;20139;-70
2023/06/04 01:14:10;;;;;;;3.30;1.80;;;;;;;11.86;48.31;101550.06;2104357;28;20175;-70
2023/06/04 01:15:12;;;;;;;1.55;1.20;;;;;;;11.87;47.67;101557.06;2102732;28;20067;-70
2023/06/04 01:16:16;;;;;;;3.90;0.90;;;;;;;11.86;47.77;101552.75;2094965;28;20033;-70
2023/06/04 01:17:40;;;;;;;3.10;1.00;;;;;;;11.86;47.59;101552.75;2102390;28;20135;-70
2023/06/04 01:18:44;;;;;;;4.75;1.20;;;;;;;11.86;47.92;101547.38;2111647;28;20036;-70
2023/06/04 01:19:51;;;;;;;3.38;1.30;;;;;;;11.86;47.50;101549.25;2119224;27;20040;-70
2023/06/04 01:21:12;;;;;;;1.23;1.00;;;;;;;11.85;47.64;101551.13;2118245;27;20138;-70
2023/06/04 01:22:41;;;;;;;2.13;1.40;;;;;;;11.84;46.98;101552.16;2112013;27;20157;-70
2023/06/04 01:24:00;;;;;;;2.08;1.52;;;;;;;11.81;46.84;101550.81;2107882;28;20036;-70
2023/06/04 01:25:21;;;;;;;4.50;1.90;;;;;;;11.78;46.89;101551.31;2113962;27;20067;-70
2023/06/04 01:26:22;;;;;;;3.03;1.58;;;;;;;11.76;46.89;101542.72;2106239;28;20859;-70
2023/06/04 01:27:25;;;;;;;2.63;1.67;;;;;;;11.74;46.42;101539.47;2093971;28;20026;-70
2023/06/04 01:28:27;;;;;;;2.72;1.88;;;;;;;11.73;47.08;101539.75;2090588;28;20073;-69
2023/06/04 01:29:29;;;;;;;3.45;2.10;;;;;;;11.74;46.74;101547.53;2079449;28;20022;-70
2023/06/04 01:30:34;;;;;;;4.78;2.00;;;;;;;11.74;46.91;101539.47;2086098;28;20025;-70
2023/06/04 01:31:36;;;;;;;4.03;2.13;;;;;;;11.73;46.34;101542.44;2095198;28;20833;-70
2023/06/04 01:32:38;;;;;;;3.47;2.00;;;;;;;11.70;46.60;101543.75;2103518;27;20171;-69
2023/06/04 01:33:40;;;;;;;3.30;2.00;;;;;;;11.69;46.86;101560.16;2110926;28;20040;-69
2023/06/04 01:34:46;;;;;;;4.63;2.00;;;;;;;11.67;46.60;101541.59;2086930;28;20030;-69
2023/06/04 01:35:50;;;;;;;3.33;2.10;;;;;;;11.67;47.04;101538.91;2108992;27;20049;-69
2023/06/04 01:36:54;;;;;;;4.88;1.80;;;;;;;11.69;47.25;101544.00;2103221;28;20847;-70
2023/06/04 01:37:55;;;;;;;3.95;1.65;;;;;;;11.69;47.08;101536.72;2086589;28;20034;-70
2023/06/04 01:38:59;;;;;;;2.45;1.63;;;;;;;11.67;47.15;101548.88;2103159;28;20168;-69
2023/06/04 01:40:06;;;;;;;3.15;1.70;;;;;;;11.64;47.16;101528.63;2111837;27;20033;-69
2023/06/04 01:41:08;;;;;;;4.15;1.70;;;;;;;11.66;47.50;101539.94;2107318;28;20029;-69
2023/06/04 01:42:11;;;;;;;7.82;2.38;;;;;;;11.66;47.42;101536.44;2103957;28;20025;-69
2023/06/04 01:43:13;;;;;;;3.70;1.95;;;;;;;11.67;47.31;101541.59;2102149;28;20025;-70
2023/06/04 01:44:15;;;;;;;3.13;1.80;;;;;;;11.67;47.22;101532.69;2101334;28;20945;-70
2023/06/04 01:45:17;;;;;;;2.75;1.77;;;;;;;11.65;47.10;101540.22;2103309;28;20029;-70
2023/06/04 01:46:19;;;;;;;4.65;1.83;;;;;;;11.64;47.41;101544.81;2094433;28;20041;-70
2023/06/04 01:47:21;;;;;;;5.45;1.80;;;;;;;11.65;47.12;101543.72;2094167;28;20028;-70
2023/06/04 01:48:22;;;;;;;2.47;1.50;;;;;;;11.65;47.17;101540.22;2103208;28;20029;-70
2023/06/04 01:49:24;;;;;;;2.65;1.50;;;;;;;11.63;47.31;101535.09;2085206;28;20099;-70
2023/06/04 01:50:26;;;;;;;3.22;1.50;;;;;;;11.63;47.14;101540.47;2095797;28;20022;-70
2023/06/04 01:51:27;;;;;;;3.58;1.60;;;;;;;11.61;47.13;101534.56;2101569;28;21128;-70
2023/06/04 01:52:32;;;;;;;3.70;1.58;;;;;;;11.60;47.10;101527.53;2108001;28;20783;-69
2023/06/04 01:53:34;;;;;;;2.25;1.45;;;;;;;11.59;47.24;101536.69;2095005;28;20029;-70
2023/06/04 01:54:38;;;;;;;3.03;1.42;;;;;;;11.60;47.08;101549.06;2090556;28;20072;-69
2023/06/04 01:55:40;;;;;;;4.10;1.42;;;;;;;11.62;47.28;101533.47;2111086;28;20071;-70
2023/06/04 01:56:41;;;;;;;1.90;1.30;;;;;;;11.62;46.89;101533.47;2093909;28;20060;-70
2023/06/04 01:57:44;;;;;;;2.15;1.60;;;;;;;11.63;47.24;101534.28;2095762;28;20100;-69
2023/06/04 01:58:46;;;;;;;2.00;1.13;;;;;;;11.62;47.29;101532.66;2107173;28;20040;-69
2023/06/04 01:59:48;;;;;;;3.03;1.42;;;;;;;11.59;47.29;101525.91;2107293;28;20029;-69
2023/06/04 02:00:54;;;;;;;2.72;1.33;;;;;;;11.59;46.90;101520.53;2095346;28;20096;-69
2023/06/04 02:02:01;;;;;;;3.03;1.23;;;;;;;11.58;47.33;101535.06;2095066;28;20828;-70
2023/06/04 02:03:04;;;;;;;2.83;1.30;;;;;;;11.56;47.26;101539.91;2095048;28;20151;-70
2023/06/04 02:04:06;;;;;;;3.95;1.70;;;;;;;11.57;47.11;101533.47;2099283;28;20040;-70
2023/06/04 02:05:10;;;;;;;3.20;1.30;;;;;;;11.57;47.25;101530.75;2095606;28;20029;-70
2023/06/04 02:06:12;;;;;;;3.65;1.40;;;;;;;11.56;47.47;101538.00;2093989;28;20022;-70
2023/06/04 02:07:17;;;;;;;2.30;1.23;;;;;;;11.54;47.16;101529.41;2094462;28;20060;-71
2023/06/04 02:08:20;;;;;;;4.93;1.30;;;;;;;11.56;47.52;101537.22;2104492;27;20029;-71
2023/06/04 02:09:21;;;;;;;3.03;1.40;;;;;;;11.56;47.48;101531.81;2110785;28;20024;-70
2023/06/04 02:10:23;;;;;;;4.57;1.50;;;;;;;11.57;47.43;101538.84;2095181;28;20842;-70
2023/06/04 02:11:27;;;;;;;2.28;1.50;;;;;;;11.54;47.36;101533.97;2085320;28;20070;-70
2023/06/04 02:12:29;;;;;;;3.83;1.30;;;;;;;11.51;47.69;101534.50;2085070;28;20025;-70
2023/06/04 02:13:31;;;;;;;4.13;1.42;;;;;;;11.46;48.14;101537.16;2112136;27;20138;-70
2023/06/04 02:14:36;;;;;;;3.20;1.48;;;;;;;11.46;47.92;101527.19;2114791;28;20047;-70
2023/06/04 02:15:38;;;;;;;2.35;1.23;;;;;;;11.46;47.72;101529.88;2111841;27;20150;-70
2023/06/04 02:16:40;;;;;;;1.80;1.00;;;;;;;11.48;47.81;101541.22;2119154;27;20030;-71
2023/06/04 02:17:42;;;;;;;4.10;1.38;;;;;;;11.50;48.32;101535.56;2118986;27;20038;-71
2023/06/04 02:18:44;;;;;;;5.00;1.30;;;;;;;11.50;48.03;101549.00;2118473;27;20043;-70
2023/06/04 02:19:50;;;;;;;6.05;1.40;;;;;;;11.49;48.12;101526.66;2106728;28;20039;-69
2023/06/04 02:20:52;;;;;;;2.03;1.20;;;;;;;11.47;47.97;101538.75;2108051;28;20016;-69
2023/06/04 02:21:54;;;;;;;2.65;1.33;;;;;;;11.48;48.13;101535.03;2110616;27;20859;-69
2023/06/04 02:22:56;;;;;;;2.88;1.30;;;;;;;11.49;48.06;101539.31;2102754;28;20106;-69
2023/06/04 02:23:58;;;;;;;9.73;1.52;;;;;;;11.48;48.21;101535.81;2093997;28;20025;-69
2023/06/04 02:25:00;;;;;;;3.00;1.40;;;;;;;11.41;48.51;101539.81;2102749;28;20024;-69
2023/06/04 02:26:03;;;;;;;2.42;1.52;;;;;;;11.35;48.70;101531.72;2102937;28;20853;-69
2023/06/04 02:27:07;;;;;;;3.20;1.40;;;;;;;11.31;48.80;101535.16;2093741;28;20028;-69
2023/06/04 02:28:11;;;;;;;2.80;1.52;;;;;;;11.26;49.25;101538.66;2111609;27;20869;-69
2023/06/04 02:29:15;;;;;;;3.28;1.33;;;;;;;11.28;49.78;101531.09;2111420;28;20108;-69
2023/06/04 02:30:17;;;;;;;4.72;1.40;;;;;;;11.29;49.67;101538.13;2110640;28;20029;-69
2023/06/04 02:31:21;;;;;;;5.28;1.60;;;;;;;11.25;49.38;101539.69;2102622;28;20036;-69
2023/06/04 02:32:23;;;;;;;2.40;1.40;;;;;;;11.23;49.50;101538.34;2094918;28;20037;-69
2023/06/04 02:33:24;;;;;;;2.72;1.00;;;;;;;11.28;49.33;101535.69;2093203;28;20044;-69
2023/06/04 02:34:27;;;;;;;7.18;1.42;;;;;;;11.29;49.06;101538.13;2104247;27;20032;-69
2023/06/04 02:35:31;;;;;;;2.42;1.25;;;;;;;11.30;48.97;101539.75;2098376;28;20032;-69
2023/06/04 02:36:33;;;;;;;4.90;1.55;;;;;;;11.26;49.05;101533.25;2094939;28;20882;-69
2023/06/04 02:37:35;;;;;;;3.60;1.35;;;;;;;11.22;49.81;101539.41;2102094;28;20094;-69
2023/06/04 02:38:37;;;;;;;3.72;1.50;;;;;;;11.19;49.25;101538.06;2102488;28;20796;-69
2023/06/04 02:39:38;;;;;;;2.47;1.33;;;;;;;11.17;49.73;101540.19;2103076;28;20037;-69
2023/06/04 02:40:40;;;;;;;2.08;1.33;;;;;;;11.19;49.76;101532.69;2102020;28;20125;-69
2023/06/04 02:41:42;;;;;;;3.30;1.33;;;;;;;11.21;50.40;101535.91;2103421;28;20768;-69
2023/06/04 02:42:44;;;;;;;3.42;1.45;;;;;;;11.19;50.05;101543.44;2110160;28;20836;-69
2023/06/04 02:43:46;;;;;;;5.47;1.50;;;;;;;11.19;50.20;101538.06;2103083;28;20158;-69
2023/06/04 02:44:48;;;;;;;2.83;1.40;;;;;;;11.18;50.41;101536.44;2109601;27;21100;-69
2023/06/04 02:45:53;;;;;;;6.78;1.40;;;;;;;11.18;49.82;101536.44;2111537;28;20127;-69
2023/06/04 02:46:59;;;;;;;2.90;1.30;;;;;;;11.19;50.13;101543.44;2102620;28;20048;-69
2023/06/04 02:48:01;;;;;;;3.08;1.63;;;;;;;11.20;50.38;101534.28;2102862;28;20053;-69
2023/06/04 02:49:03;;;;;;;2.38;1.30;;;;;;;11.16;50.42;101538.59;2102763;28;20163;-69
2023/06/04 02:50:07;;;;;;;4.82;1.58;;;;;;;11.18;50.13;101535.63;2101949;28;20067;-69
2023/06/04 02:51:10;;;;;;;1.92;1.30;;;;;;;11.13;50.32;101531.03;2114914;27;20778;-69
2023/06/04 02:52:11;;;;;;;2.60;1.30;;;;;;;11.10;50.27;101539.63;2094927;28;20068;-69
2023/06/04 02:53:13;;;;;;;2.05;1.27;;;;;;;11.14;50.04;101538.03;2079433;28;20045;-69
2023/06/04 02:54:15;;;;;;;1.60;1.13;;;;;;;11.20;50.20;101537.00;2086400;28;20040;-69
2023/06/04 02:55:16;;;;;;;6.60;1.45;;;;;;;11.24;49.85;101540.78;2085529;28;20147;-69
2023/06/04 02:56:18;;;;;;;3.20;1.30;;;;;;;11.29;49.66;101535.44;2102731;28;20029;-69
2023/06/04 02:57:23;;;;;;;3.00;1.23;;;;;;;11.35;49.65;101547.88;2103445;28;20990;-69
2023/06/04 02:58:28;;;;;;;2.33;1.30;;;;;;;11.41;49.65;101539.81;2101620;28;20033;-68
2023/06/04 02:59:33;;;;;;;1.90;1.15;;;;;;;11.46;49.49;101542.53;2106572;27;20036;-69
2023/06/04 03:00:36;;;;;;;2.03;1.15;;;;;;;11.50;49.32;101543.63;2103588;28;20056;-69
2023/06/04 03:01:39;;;;;;;2.20;1.02;;;;;;;11.53;48.83;101538.53;2101954;28;20087;-69
2023/06/04 03:02:41;;;;;;;1.50;1.00;;;;;;;11.58;48.85;101552.03;2102384;28;20147;-69
2023/06/04 03:03:46;;;;;;;1.80;1.08;;;;;;;11.63;48.98;101531.59;2102955;28;20142;-69
2023/06/04 03:04:50;;;;;;;2.53;1.20;;;;;;;11.65;48.92;101535.63;2109762;28;20039;-69
2023/06/04 03:05:52;;;;;;;1.92;1.00;;;;;;;11.70;48.73;101538.38;2102512;28;20040;-69
2023/06/04 03:06:57;;;;;;;3.38;1.02;;;;;;;11.73;48.77;101529.75;2091613;28;20080;-68
2023/06/04 03:08:03;;;;;;;2.42;1.10;;;;;;;11.77;49.13;101538.94;2111179;28;20036;-68
2023/06/04 03:09:06;;;;;;;3.08;1.30;;;;;;;11.81;48.90;101537.34;2119637;27;20035;-68
2023/06/04 03:10:11;;;;;;;1.90;1.23;;;;;;;11.85;48.72;101544.91;2109806;28;20028;-68
2023/06/04 03:11:15;;;;;;;1.92;1.10;;;;;;;11.87;48.99;101534.69;2098190;28;20060;-68
2023/06/04 03:12:16;;;;;;;4.65;1.65;;;;;;;11.85;49.29;101537.66;2098069;28;20025;-68
2023/06/04 03:13:20;;;;;;;1.92;1.08;;;;;;;11.87;49.34;101538.19;2110983;28;20033;-68
2023/06/04 03:14:23;;;;;;;2.15;1.10;;;;;;;11.90;48.92;101531.47;2102246;28;20091;-68
2023/06/04 03:15:24;;;;;;;2.83;1.30;;;;;;;11.91;49.34;101550.06;2119564;27;20036;-68
2023/06/04 03:16:26;;;;;;;2.28;1.10;;;;;;;11.93;49.14;101530.97;2101016;28;20051;-68
2023/06/04 03:17:28;;;;;;;3.63;1.58;;;;;;;11.93;49.09;101537.16;2093015;28;20037;-68
2023/06/04 03:18:29;;;;;;;2.15;1.10;;;;;;;11.94;49.00;101535.25;2106716;28;20887;-69
2023/06/04 03:19:31;;;;;;;2.70;1.38;;;;;;;11.96;48.95;101536.63;2103797;28;20094;-69
2023/06/04 03:20:38;;;;;;;4.05;1.27;;;;;;;11.95;49.04;101529.63;2093120;28;20065;-69
2023/06/04 03:21:39;;;;;;;2.00;1.33;;;;;;;11.97;48.86;101534.75;2086991;28;20072;-69
2023/06/04 03:22:41;;;;;;;5.32;1.40;;;;;;;12.00;49.53;101537.72;2094568;28;20022;-69
2023/06/04 03:23:43;;;;;;;3.67;1.23;;;;;;;12.03;49.33;101536.38;2102433;28;20896;-69
2023/06/04 03:24:47;;;;;;;3.08;1.38;;;;;;;12.04;49.30;101535.28;2103399;28;20021;-69
2023/06/04 03:25:48;;;;;;;3.05;0.90;;;;;;;12.06;49.26;101541.25;2084661;28;20071;-69
2023/06/04 03:26:49;;;;;;;3.25;1.30;;;;;;;12.11;49.23;101522.41;2095053;28;20143;-69
2023/06/04 03:27:51;;;;;;;3.60;1.35;;;;;;;12.13;49.01;101519.44;2095318;28;20021;-69
2023/06/04 03:28:54;;;;;;;2.13;1.25;;;;;;;12.15;49.11;101523.47;2093723;28;20014;-69
2023/06/04 03:29:56;;;;;;;3.30;1.23;;;;;;;12.19;49.34;101524.56;2111013;28;20028;-69
2023/06/04 03:30:58;;;;;;;2.15;1.25;;;;;;;12.17;49.38;101518.66;2102465;27;20151;-69
2023/06/04 03:32:01;;;;;;;2.58;1.20;;;;;;;12.18;49.59;101522.94;2097940;28;20037;-69
2023/06/04 03:33:03;;;;;;;2.22;1.20;;;;;;;12.21;49.87;101522.41;2094501;28;20089;-69
2023/06/04 03:34:09;;;;;;;1.77;1.10;;;;;;;12.27;49.29;101526.75;2093663;28;20135;-69
2023/06/04 03:35:11;;;;;;;2.72;0.95;;;;;;;12.31;48.95;101521.63;2099467;28;20021;-69
2023/06/04 03:36:16;;;;;;;3.05;1.13;;;;;;;12.36;49.00;101523.53;2103259;28;20032;-69
2023/06/04 03:37:18;;;;;;;2.65;1.10;;;;;;;12.39;49.08;101517.59;2102453;28;20036;-69
2023/06/04 03:38:20;;;;;;;2.10;1.00;;;;;;;12.41;49.08;101526.25;2111846;28;20139;-69
2023/06/04 03:39:22;;;;;;;3.08;1.20;;;;;;;12.41;49.33;101532.44;2095745;28;20045;-69
2023/06/04 03:40:24;;;;;;;2.25;1.00;;;;;;;12.44;49.10;101521.13;2103702;27;20131;-69
2023/06/04 03:41:27;;;;;;;2.22;1.10;;;;;;;12.52;49.19;101536.78;2121252;27;20143;-69
2023/06/04 03:42:29;;;;;;;1.77;1.17;;;;;;;12.60;48.90;101523.84;2094143;28;20036;-69
2023/06/04 03:43:31;;;;;;;2.83;1.10;;;;;;;12.62;48.95;101532.47;2094187;28;20053;-69
2023/06/04 03:44:39;;;;;;;1.48;0.95;;;;;;;12.71;48.75;101526.28;2104942;28;20059;-69
2023/06/04 03:45:41;;;;;;;4.10;1.00;;;;;;;12.79;48.57;101516.84;2104111;28;20914;-70
2023/06/04 03:46:45;;;;;;;2.17;1.00;;;;;;;12.84;48.68;101524.13;2104556;28;20029;-70
2023/06/04 03:47:48;;;;;;;2.88;1.10;;;;;;;12.88;48.36;101528.72;2094382;28;20040;-69
2023/06/04 03:48:50;;;;;;;4.65;1.30;;;;;;;12.95;48.54;101517.63;2094594;28;20013;-69
2023/06/04 03:49:52;;;;;;;2.72;1.10;;;;;;;13.05;48.01;101519.53;2096184;28;20155;-69
2023/06/04 03:50:57;;;;;;;2.83;1.00;;;;;;;13.10;48.15;101525.72;2080767;28;20034;-69
2023/06/04 03:51:59;;;;;;;3.75;1.70;;;;;;;13.13;48.49;101527.09;2091674;28;20037;-69
2023/06/04 03:53:06;;;;;;;2.88;1.00;;;;;;;13.20;48.47;101525.72;2104227;28;20021;-69
2023/06/04 03:54:11;;;;;;;2.95;1.00;;;;;;;13.26;48.15;101517.66;2119274;27;20880;-69
2023/06/04 03:55:14;;;;;;;4.75;1.15;;;;;;;13.30;48.52;101524.91;2112411;28;20044;-69
2023/06/04 03:56:17;;;;;;;2.28;1.23;;;;;;;13.37;48.07;101522.75;2111561;27;20219;-69
2023/06/04 03:57:21;;;;;;;1.80;1.10;;;;;;;13.47;47.82;101526.53;2103719;28;20179;-68
2023/06/04 03:58:23;;;;;;;3.95;1.15;;;;;;;13.53;47.86;101525.44;2100082;28;20040;-69
2023/06/04 03:59:26;;;;;;;4.43;1.30;;;;;;;13.60;47.49;101524.03;2107388;28;20934;-68
2023/06/04 04:00:28;;;;;;;2.17;1.23;;;;;;;13.67;47.38;101529.97;2116621;27;20032;-69
2023/06/04 04:01:33;;;;;;;1.95;1.10;;;;;;;13.73;47.27;101530.75;2129260;27;20762;-69
2023/06/04 04:02:35;;;;;;;3.13;1.30;;;;;;;13.77;47.25;101520.19;2111427;28;20771;-69
2023/06/04 04:03:38;;;;;;;6.22;1.13;;;;;;;13.87;47.13;101517.44;2104079;28;20114;-69
2023/06/04 04:04:40;;;;;;;3.17;1.20;;;;;;;13.94;47.18;101523.38;2108361;28;20076;-69
2023/06/04 04:05:43;;;;;;;2.20;1.13;;;;;;;14.08;46.78;101524.38;2111316;28;20032;-69
2023/06/04 04:06:47;;;;;;;2.17;1.20;;;;;;;14.23;46.37;101528.09;2091009;28;20029;-69
2023/06/04 04:07:49;;;;;;;2.70;1.20;;;;;;;14.36;45.96;101527.47;2100432;28;20069;-69
2023/06/04 04:08:55;;;;;;;3.72;1.15;;;;;;;14.51;45.87;101526.63;2104441;28;20028;-69
2023/06/04 04:09:57;;;;;;;2.90;1.30;;;;;;;14.59;45.49;101518.69;2103090;28;20171;-69
2023/06/04 04:11:01;;;;;;;3.78;1.35;;;;;;;14.73;45.33;101521.56;2103588;28;20052;-69
2023/06/04 04:12:06;;;;;;;2.15;1.08;;;;;;;14.86;45.12;101524.72;2095857;28;20903;-69
2023/06/04 04:13:09;;;;;;;3.13;1.27;;;;;;;14.96;44.86;101517.31;2103131;28;20178;-69
2023/06/04 04:14:13;;;;;;;2.97;1.30;;;;;;;15.10;44.15;101524.78;2092274;28;21017;-69
2023/06/04 04:15:15;;;;;;;2.33;1.10;;;;;;;15.21;44.14;101516.28;2087623;28;20029;-69
2023/06/04 04:16:18;;;;;;;2.90;1.10;;;;;;;15.27;44.26;101515.13;2095464;28;20860;-69
2023/06/04 04:17:20;;;;;;;1.73;1.00;;;;;;;15.40;43.63;101519.06;2101933;28;20095;-69
2023/06/04 04:18:22;;;;;;;3.95;1.08;;;;;;;15.53;43.26;101517.56;2095360;28;20134;-69
2023/06/04 04:19:25;;;;;;;3.53;0.98;;;;;;;15.64;43.13;101518.28;2095131;28;20059;-68
2023/06/04 04:20:26;;;;;;;2.08;0.90;;;;;;;15.77;43.02;101516.81;2095964;28;20160;-69
2023/06/04 04:21:37;;;;;;;2.20;1.10;;;;;;;15.83;41.75;101521.06;2093086;28;20041;-69
2023/06/04 04:22:41;;;;;;;2.35;1.20;;;;;;;15.89;42.15;101509.84;2090354;28;20032;-69
2023/06/04 04:23:45;;;;;;;2.15;1.10;;;;;;;15.98;42.15;101507.28;2103710;28;20922;-69
2023/06/04 04:24:47;;;;;;;1.92;1.20;;;;;;;16.05;42.11;101510.47;2110645;28;20899;-69
2023/06/04 04:25:53;;;;;;;2.80;1.08;;;;;;;16.09;42.26;101508.78;2108926;27;20036;-69
2023/06/04 04:26:56;;;;;;;2.30;0.98;;;;;;;16.23;42.19;101503.41;2102994;28;20049;-69
2023/06/04 04:28:00;;;;;;;3.38;1.00;;;;;;;16.39;41.71;101512.13;2078459;28;20833;-69
2023/06/04 04:29:02;;;;;;;3.90;1.33;;;;;;;16.54;41.56;101508.41;2096021;28;20026;-69
2023/06/04 04:30:08;;;;;;;2.40;1.15;;;;;;;16.69;41.64;101516.31;2094728;28;20043;-69
2023/06/04 04:31:10;;;;;;;4.20;1.17;;;;;;;16.81;41.39;101507.72;2096808;28;20771;-69
2023/06/04 04:32:13;;;;;;;3.55;1.15;;;;;;;16.90;40.89;101516.81;2102483;28;20059;-69
2023/06/04 04:33:19;;;;;;;1.95;1.10;;;;;;;17.00;40.73;101513.91;2102334;28;20064;-69
2023/06/04 04:34:24;;;;;;;2.30;1.30;;;;;;;17.09;40.32;101519.47;2098260;28;20099;-69
2023/06/04 04:35:26;;;;;;;2.88;1.30;;;;;;;17.13;40.36;101510.41;2099531;28;20859;-69
2023/06/04 04:36:32;;;;;;;2.45;1.30;;;;;;;17.27;40.52;101515.88;2091521;28;20929;-69
2023/06/04 04:37:38;;;;;;;1.80;1.20;;;;;;;17.44;40.27;101515.28;2088227;28;20036;-69
2023/06/04 04:38:42;;;;;;;2.88;1.50;;;;;;;17.56;39.84;101514.81;2104706;28;20025;-69
2023/06/04 04:39:44;;;;;;;2.83;1.30;;;;;;;17.66;39.68;101516.50;2102308;28;20045;-69
2023/06/04 04:40:47;;;;;;;3.92;1.77;;;;;;;17.82;39.59;101515.13;2104035;28;20029;-68
2023/06/04 04:41:49;;;;;;;4.07;1.63;;;;;;;17.88;38.85;101510.38;2111064;27;20138;-69
2023/06/04 04:42:51;;;;;;;4.40;1.60;;;;;;;17.94;39.07;101518.13;2116328;27;20997;-69
2023/06/04 04:43:55;;;;;;;6.10;1.48;;;;;;;18.06;38.87;101515.69;2103566;28;20216;-69
2023/06/04 04:45:07;;;;;;;2.97;1.20;;;;;;;18.15;38.57;101510.31;2104201;28;20040;-69
2023/06/04 04:46:09;;;;;;;2.35;1.27;;;;;;;18.27;38.45;101510.56;2096799;28;20033;-69
2023/06/04 04:47:11;;;;;;;3.25;1.35;;;;;;;18.39;38.02;101515.50;2094104;28;20143;-69
2023/06/04 04:48:14;;;;;;;3.13;1.40;;;;;;;18.47;38.22;101513.94;2121259;27;20123;-69
2023/06/04 04:49:16;;;;;;;2.53;1.50;;;;;;;18.54;37.87;101506.16;2115217;28;20024;-69
2023/06/04 04:50:18;;;;;;;3.70;1.40;;;;;;;18.58;38.10;101514.50;2119608;27;20060;-69
2023/06/04 04:51:19;;;;;;;2.40;1.38;;;;;;;18.67;37.42;101516.19;2103217;28;20039;-69
2023/06/04 04:52:22;;;;;;;2.80;1.20;;;;;;;18.80;37.15;101516.47;2095622;27;20033;-69
2023/06/04 04:53:24;;;;;;;2.17;1.25;;;;;;;18.92;36.76;101522.16;2102656;28;20835;-69
2023/06/04 04:54:25;;;;;;;3.65;2.08;;;;;;;19.00;36.45;101505.03;2112696;27;20083;-69
2023/06/04 04:55:27;;;;;;;2.88;1.60;;;;;;;19.05;36.49;101507.63;2119019;27;20147;-69